sensor_id;sensor_type;location;lat;lon;timestamp;P1;durP1;ratioP1;P2;durP2;ratioP2
13795;SDS011;40911;51.552;9.874;2024-02-15T00:00:18;3.58;;;2.85;;
13795;SDS011;40911;51.552;9.874;2024-02-15T00:02:41;2.83;;;2.63;;
13795;SDS011;40911;51.552;9.874;2024-02-15T00:05:05;3.03;;;2.83;;
13795;SDS011;40911;51.552;9.874;2024-02-15T00:07:28;2.92;;;2.63;;
13795;SDS011;40911;51.552;9.874;2024-02-15T00:09:49;3.50;;;3.20;;
13795;SDS011;40911;51.552;9.874;2024-02-15T00:12:11;3.60;;;3.30;;
13795;SDS011;40911;51.552;9.874;2024-02-15T00:14:33;3.47;;;3.20;;
13795;SDS011;40911;51.552;9.874;2024-02-15T00:19:17;3.60;;;3.30;;
13795;SDS011;40911;51.552;9.874;2024-02-15T00:21:42;3.83;;;3.05;;
13795;SDS011;40911;51.552;9.874;2024-02-15T00:24:04;3.70;;;3.40;;
13795;SDS011;40911;51.552;9.874;2024-02-15T00:26:27;3.95;;;3.47;;
13795;SDS011;40911;51.552;9.874;2024-02-15T00:28:49;3.83;;;3.53;;
13795;SDS011;40911;51.552;9.874;2024-02-15T00:31:10;3.40;;;3.10;;
13795;SDS011;40911;51.552;9.874;2024-02-15T00:33:32;3.63;;;3.33;;
13795;SDS011;40911;51.552;9.874;2024-02-15T00:35:56;3.28;;;2.97;;
13795;SDS011;40911;51.552;9.874;2024-02-15T00:38:18;3.53;;;3.20;;
13795;SDS011;40911;51.552;9.874;2024-02-15T00:40:40;3.85;;;2.92;;
13795;SDS011;40911;51.552;9.874;2024-02-15T00:45:23;3.80;;;3.50;;
13795;SDS011;40911;51.552;9.874;2024-02-15T00:47:45;3.20;;;2.90;;
13795;SDS011;40911;51.552;9.874;2024-02-15T00:50:07;4.13;;;3.28;;
13795;SDS011;40911;51.552;9.874;2024-02-15T00:52:30;3.20;;;2.90;;
13795;SDS011;40911;51.552;9.874;2024-02-15T00:54:52;4.15;;;3.05;;
13795;SDS011;40911;51.552;9.874;2024-02-15T00:57:13;5.95;;;3.50;;
13795;SDS011;40911;51.552;9.874;2024-02-15T00:59:35;3.53;;;3.22;;
13795;SDS011;40911;51.552;9.874;2024-02-15T01:04:18;5.38;;;3.38;;
13795;SDS011;40911;51.552;9.874;2024-02-15T01:06:40;3.33;;;3.03;;
13795;SDS011;40911;51.552;9.874;2024-02-15T01:09:03;5.35;;;3.30;;
13795;SDS011;40911;51.552;9.874;2024-02-15T01:11:25;3.95;;;3.45;;
13795;SDS011;40911;51.552;9.874;2024-02-15T01:13:48;3.70;;;3.10;;
13795;SDS011;40911;51.552;9.874;2024-02-15T01:16:11;3.65;;;3.35;;
13795;SDS011;40911;51.552;9.874;2024-02-15T01:18:32;3.63;;;3.22;;
13795;SDS011;40911;51.552;9.874;2024-02-15T01:20:55;3.40;;;3.10;;
13795;SDS011;40911;51.552;9.874;2024-02-15T01:23:16;4.10;;;3.70;;
13795;SDS011;40911;51.552;9.874;2024-02-15T01:25:39;3.63;;;3.20;;
13795;SDS011;40911;51.552;9.874;2024-02-15T01:28:01;3.90;;;3.53;;
13795;SDS011;40911;51.552;9.874;2024-02-15T01:32:44;3.80;;;3.50;;
13795;SDS011;40911;51.552;9.874;2024-02-15T01:35:06;4.00;;;3.60;;
13795;SDS011;40911;51.552;9.874;2024-02-15T01:37:30;5.00;;;3.92;;
13795;SDS011;40911;51.552;9.874;2024-02-15T01:39:51;3.80;;;3.50;;
13795;SDS011;40911;51.552;9.874;2024-02-15T01:44:36;3.83;;;3.53;;
13795;SDS011;40911;51.552;9.874;2024-02-15T01:46:59;4.15;;;3.58;;
13795;SDS011;40911;51.552;9.874;2024-02-15T01:49:21;3.90;;;3.60;;
13795;SDS011;40911;51.552;9.874;2024-02-15T01:51:44;4.38;;;3.60;;
13795;SDS011;40911;51.552;9.874;2024-02-15T01:54:06;3.70;;;3.40;;
13795;SDS011;40911;51.552;9.874;2024-02-15T01:56:29;4.05;;;3.75;;
13795;SDS011;40911;51.552;9.874;2024-02-15T01:58:52;3.80;;;3.40;;
13795;SDS011;40911;51.552;9.874;2024-02-15T02:01:14;4.15;;;3.75;;
13795;SDS011;40911;51.552;9.874;2024-02-15T02:03:36;4.30;;;3.70;;
13795;SDS011;40911;51.552;9.874;2024-02-15T02:05:57;4.70;;;4.30;;
13795;SDS011;40911;51.552;9.874;2024-02-15T02:08:20;4.25;;;3.60;;
13795;SDS011;40911;51.552;9.874;2024-02-15T02:13:05;4.00;;;3.60;;
13795;SDS011;40911;51.552;9.874;2024-02-15T02:17:51;5.07;;;4.30;;
13795;SDS011;40911;51.552;9.874;2024-02-15T02:20:13;4.40;;;4.00;;
13795;SDS011;40911;51.552;9.874;2024-02-15T02:24:59;4.13;;;3.67;;
13795;SDS011;40911;51.552;9.874;2024-02-15T02:27:23;4.28;;;3.72;;
13795;SDS011;40911;51.552;9.874;2024-02-15T02:29:45;4.00;;;3.60;;
13795;SDS011;40911;51.552;9.874;2024-02-15T02:32:07;4.00;;;3.53;;
13795;SDS011;40911;51.552;9.874;2024-02-15T02:34:28;4.10;;;3.70;;
13795;SDS011;40911;51.552;9.874;2024-02-15T02:36:50;4.10;;;3.70;;
13795;SDS011;40911;51.552;9.874;2024-02-15T02:41:35;4.00;;;3.58;;
13795;SDS011;40911;51.552;9.874;2024-02-15T02:43:56;4.63;;;3.90;;
13795;SDS011;40911;51.552;9.874;2024-02-15T02:48:39;4.82;;;3.80;;
13795;SDS011;40911;51.552;9.874;2024-02-15T02:51:01;4.43;;;3.67;;
13795;SDS011;40911;51.552;9.874;2024-02-15T02:53:23;4.88;;;4.18;;
13795;SDS011;40911;51.552;9.874;2024-02-15T02:55:45;5.63;;;4.03;;
13795;SDS011;40911;51.552;9.874;2024-02-15T02:58:08;3.90;;;3.60;;
13795;SDS011;40911;51.552;9.874;2024-02-15T03:00:30;3.95;;;3.63;;
13795;SDS011;40911;51.552;9.874;2024-02-15T03:02:52;4.45;;;3.72;;
13795;SDS011;40911;51.552;9.874;2024-02-15T03:05:16;4.15;;;3.60;;
13795;SDS011;40911;51.552;9.874;2024-02-15T03:07:41;3.63;;;3.33;;
13795;SDS011;40911;51.552;9.874;2024-02-15T03:10:03;4.55;;;3.70;;
13795;SDS011;40911;51.552;9.874;2024-02-15T03:12:28;3.60;;;3.25;;
13795;SDS011;40911;51.552;9.874;2024-02-15T03:14:51;5.38;;;3.95;;
13795;SDS011;40911;51.552;9.874;2024-02-15T03:17:15;4.40;;;3.55;;
13795;SDS011;40911;51.552;9.874;2024-02-15T03:19:36;3.83;;;3.47;;
13795;SDS011;40911;51.552;9.874;2024-02-15T03:21:58;4.32;;;3.92;;
13795;SDS011;40911;51.552;9.874;2024-02-15T03:24:20;4.00;;;3.60;;
13795;SDS011;40911;51.552;9.874;2024-02-15T03:26:42;4.38;;;3.97;;
13795;SDS011;40911;51.552;9.874;2024-02-15T03:29:04;4.82;;;3.50;;
13795;SDS011;40911;51.552;9.874;2024-02-15T03:31:29;3.28;;;2.97;;
13795;SDS011;40911;51.552;9.874;2024-02-15T03:33:51;4.63;;;3.25;;
13795;SDS011;40911;51.552;9.874;2024-02-15T03:36:15;5.18;;;3.60;;
13795;SDS011;40911;51.552;9.874;2024-02-15T03:38:40;5.70;;;3.25;;
13795;SDS011;40911;51.552;9.874;2024-02-15T03:41:01;4.43;;;2.90;;
13795;SDS011;40911;51.552;9.874;2024-02-15T03:45:44;4.03;;;3.38;;
13795;SDS011;40911;51.552;9.874;2024-02-15T03:48:08;5.55;;;3.65;;
13795;SDS011;40911;51.552;9.874;2024-02-15T03:50:30;3.63;;;3.10;;
13795;SDS011;40911;51.552;9.874;2024-02-15T03:52:52;3.80;;;3.30;;
13795;SDS011;40911;51.552;9.874;2024-02-15T03:55:15;4.45;;;3.78;;
13795;SDS011;40911;51.552;9.874;2024-02-15T04:00:00;3.42;;;3.13;;
13795;SDS011;40911;51.552;9.874;2024-02-15T04:02:22;3.92;;;3.50;;
13795;SDS011;40911;51.552;9.874;2024-02-15T04:04:47;3.85;;;3.45;;
13795;SDS011;40911;51.552;9.874;2024-02-15T04:07:09;4.15;;;3.75;;
13795;SDS011;40911;51.552;9.874;2024-02-15T04:09:32;4.25;;;3.63;;
13795;SDS011;40911;51.552;9.874;2024-02-15T04:11:55;5.78;;;3.75;;
13795;SDS011;40911;51.552;9.874;2024-02-15T04:16:39;6.93;;;3.97;;
13795;SDS011;40911;51.552;9.874;2024-02-15T04:19:01;5.03;;;3.90;;
13795;SDS011;40911;51.552;9.874;2024-02-15T04:21:24;4.78;;;3.50;;
13795;SDS011;40911;51.552;9.874;2024-02-15T04:23:47;5.53;;;3.78;;
13795;SDS011;40911;51.552;9.874;2024-02-15T04:26:09;5.88;;;3.90;;
13795;SDS011;40911;51.552;9.874;2024-02-15T04:28:33;7.03;;;3.92;;
13795;SDS011;40911;51.552;9.874;2024-02-15T04:30:55;4.93;;;4.10;;
13795;SDS011;40911;51.552;9.874;2024-02-15T04:33:17;4.90;;;4.40;;
13795;SDS011;40911;51.552;9.874;2024-02-15T04:35:38;6.07;;;3.83;;
13795;SDS011;40911;51.552;9.874;2024-02-15T04:38:01;6.38;;;3.90;;
13795;SDS011;40911;51.552;9.874;2024-02-15T04:40:24;4.85;;;3.50;;
13795;SDS011;40911;51.552;9.874;2024-02-15T04:42:45;4.72;;;3.70;;
13795;SDS011;40911;51.552;9.874;2024-02-15T04:45:07;5.05;;;3.97;;
13795;SDS011;40911;51.552;9.874;2024-02-15T04:47:31;5.78;;;4.10;;
13795;SDS011;40911;51.552;9.874;2024-02-15T04:49:52;5.45;;;4.10;;
13795;SDS011;40911;51.552;9.874;2024-02-15T04:52:14;7.90;;;4.32;;
13795;SDS011;40911;51.552;9.874;2024-02-15T04:54:39;5.97;;;3.78;;
13795;SDS011;40911;51.552;9.874;2024-02-15T04:57:00;5.18;;;3.90;;
13795;SDS011;40911;51.552;9.874;2024-02-15T04:59:22;6.40;;;4.10;;
13795;SDS011;40911;51.552;9.874;2024-02-15T05:01:46;5.75;;;4.22;;
13795;SDS011;40911;51.552;9.874;2024-02-15T05:04:07;6.43;;;4.40;;
13795;SDS011;40911;51.552;9.874;2024-02-15T05:06:29;4.70;;;3.95;;
13795;SDS011;40911;51.552;9.874;2024-02-15T05:08:52;6.05;;;4.13;;
13795;SDS011;40911;51.552;9.874;2024-02-15T05:11:18;8.38;;;4.00;;
13795;SDS011;40911;51.552;9.874;2024-02-15T05:13:39;4.50;;;3.65;;
13795;SDS011;40911;51.552;9.874;2024-02-15T05:16:01;5.70;;;4.03;;
13795;SDS011;40911;51.552;9.874;2024-02-15T05:20:44;5.38;;;4.13;;
13795;SDS011;40911;51.552;9.874;2024-02-15T05:23:06;6.32;;;4.50;;
13795;SDS011;40911;51.552;9.874;2024-02-15T05:25:27;5.05;;;4.40;;
13795;SDS011;40911;51.552;9.874;2024-02-15T05:27:54;7.65;;;4.53;;
13795;SDS011;40911;51.552;9.874;2024-02-15T05:30:16;4.93;;;4.18;;
13795;SDS011;40911;51.552;9.874;2024-02-15T05:32:38;4.78;;;4.00;;
13795;SDS011;40911;51.552;9.874;2024-02-15T05:35:04;5.90;;;4.20;;
13795;SDS011;40911;51.552;9.874;2024-02-15T05:37:28;5.97;;;4.20;;
13795;SDS011;40911;51.552;9.874;2024-02-15T05:42:14;4.85;;;3.90;;
13795;SDS011;40911;51.552;9.874;2024-02-15T05:44:37;7.78;;;4.50;;
13795;SDS011;40911;51.552;9.874;2024-02-15T05:46:58;8.23;;;4.53;;
13795;SDS011;40911;51.552;9.874;2024-02-15T05:49:20;6.35;;;4.50;;
13795;SDS011;40911;51.552;9.874;2024-02-15T05:51:43;8.70;;;4.45;;
13795;SDS011;40911;51.552;9.874;2024-02-15T05:54:07;5.28;;;4.15;;
13795;SDS011;40911;51.552;9.874;2024-02-15T05:58:50;6.25;;;4.57;;
13795;SDS011;40911;51.552;9.874;2024-02-15T06:01:13;5.25;;;4.05;;
13795;SDS011;40911;51.552;9.874;2024-02-15T06:03:35;8.23;;;4.30;;
13795;SDS011;40911;51.552;9.874;2024-02-15T06:06:04;6.03;;;4.40;;
13795;SDS011;40911;51.552;9.874;2024-02-15T06:08:27;6.47;;;4.68;;
13795;SDS011;40911;51.552;9.874;2024-02-15T06:10:50;6.95;;;4.30;;
13795;SDS011;40911;51.552;9.874;2024-02-15T06:13:12;7.93;;;4.60;;
13795;SDS011;40911;51.552;9.874;2024-02-15T06:15:34;5.88;;;4.35;;
13795;SDS011;40911;51.552;9.874;2024-02-15T06:17:57;8.43;;;5.53;;
13795;SDS011;40911;51.552;9.874;2024-02-15T06:20:19;7.72;;;5.10;;
13795;SDS011;40911;51.552;9.874;2024-02-15T06:22:41;6.90;;;4.85;;
13795;SDS011;40911;51.552;9.874;2024-02-15T06:27:25;11.15;;;5.07;;
13795;SDS011;40911;51.552;9.874;2024-02-15T06:29:47;9.35;;;5.25;;
13795;SDS011;40911;51.552;9.874;2024-02-15T06:32:26;9.35;;;5.22;;
13795;SDS011;40911;51.552;9.874;2024-02-15T06:35:09;8.40;;;5.63;;
13795;SDS011;40911;51.552;9.874;2024-02-15T06:37:48;7.75;;;5.60;;
13795;SDS011;40911;51.552;9.874;2024-02-15T06:40:27;7.82;;;5.57;;
13795;SDS011;40911;51.552;9.874;2024-02-15T06:42:51;8.88;;;5.95;;
13795;SDS011;40911;51.552;9.874;2024-02-15T06:45:12;9.40;;;5.97;;
13795;SDS011;40911;51.552;9.874;2024-02-15T06:49:55;6.80;;;5.45;;
13795;SDS011;40911;51.552;9.874;2024-02-15T06:52:19;8.90;;;5.50;;
13795;SDS011;40911;51.552;9.874;2024-02-15T06:54:42;9.60;;;5.38;;
13795;SDS011;40911;51.552;9.874;2024-02-15T06:57:05;9.82;;;5.38;;
13795;SDS011;40911;51.552;9.874;2024-02-15T06:59:27;8.13;;;5.57;;
13795;SDS011;40911;51.552;9.874;2024-02-15T07:01:49;7.97;;;5.32;;
13795;SDS011;40911;51.552;9.874;2024-02-15T07:04:12;10.60;;;5.53;;
13795;SDS011;40911;51.552;9.874;2024-02-15T07:08:56;9.10;;;5.88;;
13795;SDS011;40911;51.552;9.874;2024-02-15T07:11:18;7.13;;;4.97;;
13795;SDS011;40911;51.552;9.874;2024-02-15T07:13:40;10.73;;;5.30;;
13795;SDS011;40911;51.552;9.874;2024-02-15T07:16:01;9.98;;;5.07;;
13795;SDS011;40911;51.552;9.874;2024-02-15T07:18:24;6.90;;;4.75;;
13795;SDS011;40911;51.552;9.874;2024-02-15T07:20:45;9.48;;;5.18;;
13795;SDS011;40911;51.552;9.874;2024-02-15T07:23:07;7.72;;;5.78;;
13795;SDS011;40911;51.552;9.874;2024-02-15T07:25:30;6.63;;;4.70;;
13795;SDS011;40911;51.552;9.874;2024-02-15T07:27:52;7.70;;;4.43;;
13795;SDS011;40911;51.552;9.874;2024-02-15T07:32:36;7.53;;;5.13;;
13795;SDS011;40911;51.552;9.874;2024-02-15T07:34:57;7.35;;;5.30;;
13795;SDS011;40911;51.552;9.874;2024-02-15T07:37:19;6.43;;;4.95;;
13795;SDS011;40911;51.552;9.874;2024-02-15T07:39:46;6.40;;;4.65;;
13795;SDS011;40911;51.552;9.874;2024-02-15T07:42:09;7.25;;;5.32;;
13795;SDS011;40911;51.552;9.874;2024-02-15T07:44:30;7.97;;;4.47;;
13795;SDS011;40911;51.552;9.874;2024-02-15T07:46:54;7.68;;;4.75;;
13795;SDS011;40911;51.552;9.874;2024-02-15T07:49:16;9.10;;;5.15;;
13795;SDS011;40911;51.552;9.874;2024-02-15T07:51:38;9.25;;;4.88;;
13795;SDS011;40911;51.552;9.874;2024-02-15T07:54:00;7.88;;;4.57;;
13795;SDS011;40911;51.552;9.874;2024-02-15T07:56:22;7.20;;;4.97;;
13795;SDS011;40911;51.552;9.874;2024-02-15T07:58:48;5.97;;;4.72;;
13795;SDS011;40911;51.552;9.874;2024-02-15T08:01:12;9.02;;;4.93;;
13795;SDS011;40911;51.552;9.874;2024-02-15T08:03:34;6.60;;;4.90;;
13795;SDS011;40911;51.552;9.874;2024-02-15T08:05:55;8.90;;;5.03;;
13795;SDS011;40911;51.552;9.874;2024-02-15T08:08:17;8.63;;;4.68;;
13795;SDS011;40911;51.552;9.874;2024-02-15T08:13:00;6.40;;;4.60;;
13795;SDS011;40911;51.552;9.874;2024-02-15T08:15:24;7.82;;;4.97;;
13795;SDS011;40911;51.552;9.874;2024-02-15T08:17:47;7.88;;;4.65;;
13795;SDS011;40911;51.552;9.874;2024-02-15T08:20:09;5.22;;;4.53;;
13795;SDS011;40911;51.552;9.874;2024-02-15T08:22:32;7.20;;;4.50;;
13795;SDS011;40911;51.552;9.874;2024-02-15T08:24:54;7.65;;;4.28;;
13795;SDS011;40911;51.552;9.874;2024-02-15T08:29:37;6.22;;;4.32;;
13795;SDS011;40911;51.552;9.874;2024-02-15T08:32:00;8.15;;;4.70;;
13795;SDS011;40911;51.552;9.874;2024-02-15T08:34:21;5.97;;;4.30;;
13795;SDS011;40911;51.552;9.874;2024-02-15T08:36:43;7.18;;;3.95;;
13795;SDS011;40911;51.552;9.874;2024-02-15T08:39:05;6.43;;;4.43;;
13795;SDS011;40911;51.552;9.874;2024-02-15T08:41:28;6.57;;;3.95;;
13795;SDS011;40911;51.552;9.874;2024-02-15T08:43:49;4.30;;;3.67;;
13795;SDS011;40911;51.552;9.874;2024-02-15T08:46:11;7.78;;;3.85;;
13795;SDS011;40911;51.552;9.874;2024-02-15T08:50:55;4.65;;;3.78;;
13795;SDS011;40911;51.552;9.874;2024-02-15T08:53:17;5.32;;;3.30;;
13795;SDS011;40911;51.552;9.874;2024-02-15T08:55:39;4.18;;;3.33;;
13795;SDS011;40911;51.552;9.874;2024-02-15T08:58:01;3.30;;;3.00;;
13795;SDS011;40911;51.552;9.874;2024-02-15T09:00:24;6.32;;;3.40;;
13795;SDS011;40911;51.552;9.874;2024-02-15T09:02:47;6.57;;;4.07;;
13795;SDS011;40911;51.552;9.874;2024-02-15T09:05:10;5.68;;;4.07;;
13795;SDS011;40911;51.552;9.874;2024-02-15T09:07:34;5.13;;;4.20;;
13795;SDS011;40911;51.552;9.874;2024-02-15T09:09:56;7.35;;;4.32;;
13795;SDS011;40911;51.552;9.874;2024-02-15T09:12:18;9.00;;;4.43;;
13795;SDS011;40911;51.552;9.874;2024-02-15T09:14:39;6.63;;;4.30;;
13795;SDS011;40911;51.552;9.874;2024-02-15T09:17:01;6.15;;;4.18;;
13795;SDS011;40911;51.552;9.874;2024-02-15T09:19:27;8.73;;;4.72;;
13795;SDS011;40911;51.552;9.874;2024-02-15T09:21:50;6.00;;;4.50;;
13795;SDS011;40911;51.552;9.874;2024-02-15T09:24:11;7.80;;;4.53;;
13795;SDS011;40911;51.552;9.874;2024-02-15T09:26:36;9.02;;;4.50;;
13795;SDS011;40911;51.552;9.874;2024-02-15T09:28:57;5.50;;;4.35;;
13795;SDS011;40911;51.552;9.874;2024-02-15T09:31:19;8.05;;;4.60;;
13795;SDS011;40911;51.552;9.874;2024-02-15T09:33:41;7.15;;;4.35;;
13795;SDS011;40911;51.552;9.874;2024-02-15T09:36:02;6.35;;;4.25;;
13795;SDS011;40911;51.552;9.874;2024-02-15T09:38:26;4.75;;;4.13;;
13795;SDS011;40911;51.552;9.874;2024-02-15T09:40:48;8.75;;;3.78;;
13795;SDS011;40911;51.552;9.874;2024-02-15T09:43:10;7.75;;;4.45;;
13795;SDS011;40911;51.552;9.874;2024-02-15T09:45:33;4.10;;;3.30;;
13795;SDS011;40911;51.552;9.874;2024-02-15T09:47:56;10.15;;;3.88;;
13795;SDS011;40911;51.552;9.874;2024-02-15T09:50:25;5.60;;;3.40;;
13795;SDS011;40911;51.552;9.874;2024-02-15T09:52:51;4.18;;;3.65;;
13795;SDS011;40911;51.552;9.874;2024-02-15T09:55:15;4.03;;;3.47;;
13795;SDS011;40911;51.552;9.874;2024-02-15T09:57:37;4.43;;;3.95;;
13795;SDS011;40911;51.552;9.874;2024-02-15T10:02:22;4.35;;;3.25;;
13795;SDS011;40911;51.552;9.874;2024-02-15T10:04:45;5.32;;;3.60;;
13795;SDS011;40911;51.552;9.874;2024-02-15T10:07:07;6.32;;;3.85;;
13795;SDS011;40911;51.552;9.874;2024-02-15T10:11:54;4.90;;;3.53;;
13795;SDS011;40911;51.552;9.874;2024-02-15T10:14:17;9.63;;;3.85;;
13795;SDS011;40911;51.552;9.874;2024-02-15T10:16:41;7.05;;;3.35;;
13795;SDS011;40911;51.552;9.874;2024-02-15T10:19:08;4.72;;;3.35;;
13795;SDS011;40911;51.552;9.874;2024-02-15T10:21:30;6.78;;;3.45;;
13795;SDS011;40911;51.552;9.874;2024-02-15T10:24:05;5.20;;;3.13;;
13795;SDS011;40911;51.552;9.874;2024-02-15T10:26:28;4.90;;;3.13;;
13795;SDS011;40911;51.552;9.874;2024-02-15T10:31:28;4.38;;;2.58;;
13795;SDS011;40911;51.552;9.874;2024-02-15T10:33:51;7.13;;;2.80;;
13795;SDS011;40911;51.552;9.874;2024-02-15T10:36:13;4.25;;;2.80;;
13795;SDS011;40911;51.552;9.874;2024-02-15T10:38:36;5.68;;;3.60;;
13795;SDS011;40911;51.552;9.874;2024-02-15T10:41:02;5.20;;;2.65;;
13795;SDS011;40911;51.552;9.874;2024-02-15T10:43:25;5.65;;;3.35;;
13795;SDS011;40911;51.552;9.874;2024-02-15T10:45:47;6.35;;;2.40;;
13795;SDS011;40911;51.552;9.874;2024-02-15T10:48:11;5.45;;;2.83;;
13795;SDS011;40911;51.552;9.874;2024-02-15T10:50:34;3.45;;;2.50;;
13795;SDS011;40911;51.552;9.874;2024-02-15T10:55:20;6.85;;;3.00;;
13795;SDS011;40911;51.552;9.874;2024-02-15T10:57:53;4.18;;;2.40;;
13795;SDS011;40911;51.552;9.874;2024-02-15T11:00:20;4.97;;;2.75;;
13795;SDS011;40911;51.552;9.874;2024-02-15T11:02:46;5.55;;;3.30;;
13795;SDS011;40911;51.552;9.874;2024-02-15T11:05:16;3.35;;;2.78;;
13795;SDS011;40911;51.552;9.874;2024-02-15T11:07:43;3.92;;;2.85;;
13795;SDS011;40911;51.552;9.874;2024-02-15T11:12:28;5.25;;;2.67;;
13795;SDS011;40911;51.552;9.874;2024-02-15T11:14:51;6.40;;;3.58;;
13795;SDS011;40911;51.552;9.874;2024-02-15T11:17:14;6.05;;;2.70;;
13795;SDS011;40911;51.552;9.874;2024-02-15T11:20:09;5.57;;;3.08;;
13795;SDS011;40911;51.552;9.874;2024-02-15T11:22:33;5.50;;;3.10;;
13795;SDS011;40911;51.552;9.874;2024-02-15T11:24:56;5.50;;;2.70;;
13795;SDS011;40911;51.552;9.874;2024-02-15T11:27:26;7.20;;;3.00;;
13795;SDS011;40911;51.552;9.874;2024-02-15T11:29:49;4.70;;;2.92;;
13795;SDS011;40911;51.552;9.874;2024-02-15T11:35:07;4.80;;;3.27;;
13795;SDS011;40911;51.552;9.874;2024-02-15T11:40:13;3.90;;;3.00;;
13795;SDS011;40911;51.552;9.874;2024-02-15T11:42:35;5.53;;;2.95;;
13795;SDS011;40911;51.552;9.874;2024-02-15T11:45:02;4.45;;;2.95;;
13795;SDS011;40911;51.552;9.874;2024-02-15T11:47:25;5.22;;;2.80;;
13795;SDS011;40911;51.552;9.874;2024-02-15T11:49:48;3.70;;;3.08;;
13795;SDS011;40911;51.552;9.874;2024-02-15T11:52:10;6.72;;;3.63;;
13795;SDS011;40911;51.552;9.874;2024-02-15T11:54:33;4.22;;;3.30;;
13795;SDS011;40911;51.552;9.874;2024-02-15T11:56:57;4.43;;;3.15;;
13795;SDS011;40911;51.552;9.874;2024-02-15T11:59:39;5.47;;;3.37;;
13795;SDS011;40911;51.552;9.874;2024-02-15T12:02:13;4.78;;;2.95;;
13795;SDS011;40911;51.552;9.874;2024-02-15T12:07:34;4.55;;;2.90;;
13795;SDS011;40911;51.552;9.874;2024-02-15T12:10:18;7.13;;;3.17;;
13795;SDS011;40911;51.552;9.874;2024-02-15T12:12:57;5.10;;;3.20;;
13795;SDS011;40911;51.552;9.874;2024-02-15T12:15:36;6.18;;;3.40;;
13795;SDS011;40911;51.552;9.874;2024-02-15T12:18:15;6.57;;;3.50;;
13795;SDS011;40911;51.552;9.874;2024-02-15T12:20:54;4.28;;;3.67;;
13795;SDS011;40911;51.552;9.874;2024-02-15T12:25:39;7.78;;;4.32;;
13795;SDS011;40911;51.552;9.874;2024-02-15T12:28:01;6.55;;;4.05;;
13795;SDS011;40911;51.552;9.874;2024-02-15T12:30:24;6.13;;;4.13;;
13795;SDS011;40911;51.552;9.874;2024-02-15T12:32:50;7.65;;;4.07;;
13795;SDS011;40911;51.552;9.874;2024-02-15T12:35:12;7.13;;;4.55;;
13795;SDS011;40911;51.552;9.874;2024-02-15T12:37:37;5.13;;;4.25;;
13795;SDS011;40911;51.552;9.874;2024-02-15T12:40:09;9.40;;;4.30;;
13795;SDS011;40911;51.552;9.874;2024-02-15T12:42:39;7.03;;;4.47;;
13795;SDS011;40911;51.552;9.874;2024-02-15T12:45:00;7.88;;;4.30;;
13795;SDS011;40911;51.552;9.874;2024-02-15T12:47:24;6.88;;;4.22;;
13795;SDS011;40911;51.552;9.874;2024-02-15T12:49:45;6.18;;;4.18;;
13795;SDS011;40911;51.552;9.874;2024-02-15T12:55:05;6.53;;;4.35;;
13795;SDS011;40911;51.552;9.874;2024-02-15T12:57:29;9.13;;;4.18;;
13795;SDS011;40911;51.552;9.874;2024-02-15T12:59:54;8.68;;;4.38;;
13795;SDS011;40911;51.552;9.874;2024-02-15T13:02:15;6.30;;;4.38;;
13795;SDS011;40911;51.552;9.874;2024-02-15T13:04:37;7.10;;;3.90;;
13795;SDS011;40911;51.552;9.874;2024-02-15T13:06:59;6.68;;;4.10;;
13795;SDS011;40911;51.552;9.874;2024-02-15T13:09:21;6.43;;;4.40;;
13795;SDS011;40911;51.552;9.874;2024-02-15T13:14:07;7.30;;;4.90;;
13795;SDS011;40911;51.552;9.874;2024-02-15T13:16:31;6.57;;;3.67;;
13795;SDS011;40911;51.552;9.874;2024-02-15T13:18:54;6.07;;;4.20;;
13795;SDS011;40911;51.552;9.874;2024-02-15T13:21:15;7.82;;;4.25;;
13795;SDS011;40911;51.552;9.874;2024-02-15T13:23:37;6.78;;;4.15;;
13795;SDS011;40911;51.552;9.874;2024-02-15T13:25:59;8.13;;;4.88;;
13795;SDS011;40911;51.552;9.874;2024-02-15T13:28:24;6.03;;;4.20;;
13795;SDS011;40911;51.552;9.874;2024-02-15T13:33:10;7.15;;;4.28;;
13795;SDS011;40911;51.552;9.874;2024-02-15T13:35:32;7.63;;;3.90;;
13795;SDS011;40911;51.552;9.874;2024-02-15T13:40:18;5.90;;;3.35;;
13795;SDS011;40911;51.552;9.874;2024-02-15T13:42:43;5.38;;;3.95;;
13795;SDS011;40911;51.552;9.874;2024-02-15T13:45:09;7.75;;;4.10;;
13795;SDS011;40911;51.552;9.874;2024-02-15T13:47:33;6.78;;;4.00;;
13795;SDS011;40911;51.552;9.874;2024-02-15T13:49:57;5.60;;;3.55;;
13795;SDS011;40911;51.552;9.874;2024-02-15T13:52:18;5.28;;;3.67;;
13795;SDS011;40911;51.552;9.874;2024-02-15T13:54:42;6.55;;;4.30;;
13795;SDS011;40911;51.552;9.874;2024-02-15T13:59:26;5.45;;;3.70;;
13795;SDS011;40911;51.552;9.874;2024-02-15T14:01:48;5.13;;;3.38;;
13795;SDS011;40911;51.552;9.874;2024-02-15T14:04:10;4.80;;;3.50;;
13795;SDS011;40911;51.552;9.874;2024-02-15T14:06:33;3.83;;;3.38;;
13795;SDS011;40911;51.552;9.874;2024-02-15T14:08:56;4.78;;;3.70;;
13795;SDS011;40911;51.552;9.874;2024-02-15T14:11:17;3.78;;;3.40;;
13795;SDS011;40911;51.552;9.874;2024-02-15T14:13:39;6.25;;;3.90;;
13795;SDS011;40911;51.552;9.874;2024-02-15T14:16:01;5.05;;;3.58;;
13795;SDS011;40911;51.552;9.874;2024-02-15T14:18:23;8.50;;;4.38;;
13795;SDS011;40911;51.552;9.874;2024-02-15T14:23:08;6.45;;;3.65;;
13795;SDS011;40911;51.552;9.874;2024-02-15T14:25:33;4.38;;;3.47;;
13795;SDS011;40911;51.552;9.874;2024-02-15T14:27:55;7.18;;;3.85;;
13795;SDS011;40911;51.552;9.874;2024-02-15T14:32:55;5.00;;;3.30;;
13795;SDS011;40911;51.552;9.874;2024-02-15T14:35:24;6.22;;;3.38;;
13795;SDS011;40911;51.552;9.874;2024-02-15T14:37:46;11.85;;;4.07;;
13795;SDS011;40911;51.552;9.874;2024-02-15T14:40:09;5.07;;;3.50;;
13795;SDS011;40911;51.552;9.874;2024-02-15T14:42:34;5.00;;;3.47;;
13795;SDS011;40911;51.552;9.874;2024-02-15T14:44:57;6.88;;;4.10;;
13795;SDS011;40911;51.552;9.874;2024-02-15T14:47:19;7.43;;;4.03;;
13795;SDS011;40911;51.552;9.874;2024-02-15T14:49:40;3.65;;;3.30;;
13795;SDS011;40911;51.552;9.874;2024-02-15T14:52:03;6.93;;;3.58;;
13795;SDS011;40911;51.552;9.874;2024-02-15T14:54:25;5.13;;;3.13;;
13795;SDS011;40911;51.552;9.874;2024-02-15T14:56:48;7.55;;;2.92;;
13795;SDS011;40911;51.552;9.874;2024-02-15T14:59:10;6.15;;;3.15;;
13795;SDS011;40911;51.552;9.874;2024-02-15T15:01:33;7.63;;;3.55;;
13795;SDS011;40911;51.552;9.874;2024-02-15T15:03:57;5.55;;;3.00;;
13795;SDS011;40911;51.552;9.874;2024-02-15T15:06:23;3.72;;;2.65;;
13795;SDS011;40911;51.552;9.874;2024-02-15T15:09:03;4.18;;;2.97;;
13795;SDS011;40911;51.552;9.874;2024-02-15T15:11:42;5.38;;;2.90;;
13795;SDS011;40911;51.552;9.874;2024-02-15T15:14:22;6.18;;;2.85;;
13795;SDS011;40911;51.552;9.874;2024-02-15T15:16:44;4.82;;;2.53;;
13795;SDS011;40911;51.552;9.874;2024-02-15T15:19:06;4.25;;;3.17;;
13795;SDS011;40911;51.552;9.874;2024-02-15T15:23:49;4.35;;;3.28;;
13795;SDS011;40911;51.552;9.874;2024-02-15T15:26:12;8.52;;;3.50;;
13795;SDS011;40911;51.552;9.874;2024-02-15T15:28:40;8.32;;;4.18;;
13795;SDS011;40911;51.552;9.874;2024-02-15T15:33:25;6.53;;;3.72;;
13795;SDS011;40911;51.552;9.874;2024-02-15T15:35:47;6.55;;;4.25;;
13795;SDS011;40911;51.552;9.874;2024-02-15T15:38:09;9.40;;;4.63;;
13795;SDS011;40911;51.552;9.874;2024-02-15T15:40:31;6.10;;;4.60;;
13795;SDS011;40911;51.552;9.874;2024-02-15T15:45:17;5.35;;;3.97;;
13795;SDS011;40911;51.552;9.874;2024-02-15T15:47:41;5.50;;;4.00;;
13795;SDS011;40911;51.552;9.874;2024-02-15T15:50:03;11.32;;;4.55;;
13795;SDS011;40911;51.552;9.874;2024-02-15T15:52:26;6.57;;;3.95;;
13795;SDS011;40911;51.552;9.874;2024-02-15T15:54:48;9.32;;;4.38;;
13795;SDS011;40911;51.552;9.874;2024-02-15T15:57:10;13.23;;;6.43;;
13795;SDS011;40911;51.552;9.874;2024-02-15T16:01:53;4.75;;;4.03;;
13795;SDS011;40911;51.552;9.874;2024-02-15T16:06:37;20.50;;;11.02;;
13795;SDS011;40911;51.552;9.874;2024-02-15T16:09:01;8.90;;;5.57;;
13795;SDS011;40911;51.552;9.874;2024-02-15T16:11:23;6.07;;;3.70;;